createdAt,value
2024-01-01T00:01:34.409Z,11.67
2024-01-01T00:04:01.382Z,11.67
2024-01-01T00:06:29.656Z,11.67
2024-01-01T00:08:57.061Z,11.67
2024-01-01T00:11:23.750Z,11.67
2024-01-01T00:13:50.437Z,11.68
2024-01-01T00:16:17.149Z,11.69
2024-01-01T00:18:43.860Z,11.68
2024-01-01T00:21:10.561Z,11.64
2024-01-01T00:23:37.236Z,11.67
2024-01-01T00:26:03.945Z,11.65
2024-01-01T00:28:30.685Z,11.65
2024-01-01T00:30:57.415Z,11.65
2024-01-01T00:33:24.191Z,11.65
2024-01-01T00:35:50.998Z,11.67
2024-01-01T00:38:17.810Z,11.64
2024-01-01T00:40:44.606Z,11.65
2024-01-01T00:43:11.321Z,11.65
2024-01-01T00:45:43.267Z,11.62
2024-01-01T00:48:15.931Z,11.62
2024-01-01T00:50:42.696Z,11.64
2024-01-01T00:53:09.501Z,11.64
2024-01-01T00:55:36.335Z,11.64
2024-01-01T00:58:03.381Z,11.62
2024-01-01T01:00:30.188Z,11.62
2024-01-01T01:02:56.927Z,11.64
2024-01-01T01:05:23.799Z,11.62
2024-01-01T01:07:50.559Z,11.64
2024-01-01T01:10:17.259Z,11.61
2024-01-01T01:12:43.943Z,11.61
2024-01-01T01:15:10.635Z,11.59
2024-01-01T01:17:37.427Z,11.59
2024-01-01T01:20:05.905Z,11.61
2024-01-01T01:22:34.086Z,11.57
2024-01-01T01:25:00.804Z,11.61
2024-01-01T01:27:27.466Z,11.61
2024-01-01T01:29:54.127Z,11.59
2024-01-01T01:32:20.874Z,11.59
2024-01-01T01:34:47.645Z,11.61
2024-01-01T01:37:14.355Z,11.62
2024-01-01T01:39:41.028Z,11.59
2024-01-01T01:42:07.728Z,11.59
2024-01-01T01:44:34.466Z,11.58
2024-01-01T01:47:01.205Z,11.61
2024-01-01T01:49:27.899Z,11.58
2024-01-01T01:51:54.588Z,11.59
2024-01-01T01:54:21.298Z,11.59
2024-01-01T01:56:48.013Z,11.58
2024-01-01T01:59:14.690Z,11.61
2024-01-01T02:01:41.413Z,11.58
2024-01-01T02:04:08.101Z,11.58
2024-01-01T02:06:34.782Z,11.58
2024-01-01T02:09:01.510Z,11.57
2024-01-01T02:11:28.281Z,11.57
2024-01-01T02:13:55.101Z,11.59
2024-01-01T02:16:21.996Z,11.59
2024-01-01T02:18:48.987Z,11.57
2024-01-01T02:21:15.710Z,11.54
2024-01-01T02:23:42.433Z,11.58
2024-01-01T02:26:09.373Z,11.58
2024-01-01T02:28:36.402Z,11.55
2024-01-01T02:31:03.128Z,11.58
2024-01-01T02:33:29.881Z,11.55
2024-01-01T02:35:56.565Z,11.55
2024-01-01T02:38:23.283Z,11.58
2024-01-01T02:41:08.600Z,11.55
2024-01-01T02:43:54.033Z,11.57
2024-01-01T02:46:39.308Z,11.55
2024-01-01T02:49:24.336Z,11.55
2024-01-01T02:52:09.807Z,11.55
2024-01-01T02:54:54.784Z,11.57
2024-01-01T02:57:39.853Z,11.52
2024-01-01T03:00:25.240Z,11.52
2024-01-01T03:03:10.682Z,11.54
2024-01-01T03:05:56.018Z,11.54
2024-01-01T03:08:41.466Z,11.54
2024-01-01T03:11:26.754Z,11.57
2024-01-01T03:14:12.058Z,11.52
2024-01-01T03:16:57.545Z,11.52
2024-01-01T03:19:43.174Z,11.54
2024-01-01T03:22:28.565Z,11.55
2024-01-01T03:25:13.700Z,11.54
2024-01-01T03:27:59.017Z,11.55
2024-01-01T03:30:44.515Z,11.52
2024-01-01T03:33:30.217Z,11.54
2024-01-01T03:36:15.301Z,11.54
2024-01-01T03:39:00.576Z,11.54
2024-01-01T03:41:45.814Z,11.54
2024-01-01T03:44:31.099Z,11.50
2024-01-01T03:47:16.594Z,11.51
2024-01-01T03:50:02.454Z,11.52
2024-01-01T03:52:47.912Z,11.50
2024-01-01T03:55:14.633Z,11.48
2024-01-01T03:57:41.348Z,11.50
2024-01-01T04:00:08.930Z,11.51
2024-01-01T04:02:35.793Z,11.51
2024-01-01T04:05:02.854Z,11.48
2024-01-01T04:07:29.580Z,11.51
2024-01-01T04:09:56.321Z,11.51
2024-01-01T04:12:23.080Z,11.50
2024-01-01T04:14:49.902Z,11.47
2024-01-01T04:17:16.655Z,11.48
2024-01-01T04:19:43.398Z,11.51
2024-01-01T04:22:10.113Z,11.55
2024-01-01T04:24:36.824Z,11.52
2024-01-01T04:27:03.513Z,11.51
2024-01-01T04:29:30.236Z,11.51
2024-01-01T04:31:57.056Z,11.51
2024-01-01T04:34:23.785Z,11.50
2024-01-01T04:36:50.515Z,11.50
2024-01-01T04:39:17.227Z,11.50
2024-01-01T04:41:44.190Z,11.51
2024-01-01T04:44:11.039Z,11.48
2024-01-01T04:46:37.847Z,11.47
2024-01-01T04:49:04.610Z,11.52
2024-01-01T04:51:31.425Z,11.48
2024-01-01T04:53:58.368Z,11.47
2024-01-01T04:56:25.098Z,11.51
2024-01-01T04:58:52.051Z,11.48
2024-01-01T05:01:18.806Z,11.48
2024-01-01T05:03:45.539Z,11.50
2024-01-01T05:06:12.462Z,11.48
2024-01-01T05:08:39.182Z,11.47
2024-01-01T05:11:06.000Z,11.48
2024-01-01T05:13:32.771Z,11.47
2024-01-01T05:15:59.481Z,11.47
2024-01-01T05:18:26.249Z,11.48
2024-01-01T05:20:53.038Z,11.48
2024-01-01T05:23:19.822Z,11.48
2024-01-01T05:25:46.580Z,11.45
2024-01-01T05:28:13.318Z,11.45
2024-01-01T05:30:40.046Z,11.44
2024-01-01T05:33:06.903Z,11.44
2024-01-01T05:35:33.637Z,11.44
2024-01-01T05:38:00.436Z,11.44
2024-01-01T05:40:27.150Z,11.47
2024-01-01T05:42:54.077Z,11.45
2024-01-01T05:45:20.811Z,11.41
2024-01-01T05:47:47.520Z,11.45
2024-01-01T05:50:15.056Z,11.47
2024-01-01T05:52:41.859Z,11.45
2024-01-01T05:55:08.608Z,11.44
2024-01-01T05:57:35.344Z,11.44
2024-01-01T06:00:02.050Z,11.42
2024-01-01T06:02:28.778Z,11.44
2024-01-01T06:04:55.815Z,11.44
2024-01-01T06:07:22.574Z,11.44
2024-01-01T06:09:49.291Z,11.45
2024-01-01T06:12:15.991Z,11.42
2024-01-01T06:14:42.736Z,11.42
2024-01-01T06:17:09.539Z,11.44
2024-01-01T06:19:36.561Z,11.41
2024-01-01T06:22:03.271Z,11.44
2024-01-01T06:24:30.020Z,11.38
2024-01-01T06:26:56.694Z,11.42
2024-01-01T06:29:23.617Z,11.42
2024-01-01T06:31:50.562Z,11.42
2024-01-01T06:34:17.279Z,11.44
2024-01-01T06:36:44.203Z,11.44
2024-01-01T06:39:10.929Z,11.42
2024-01-01T06:41:37.658Z,11.41
2024-01-01T06:44:04.462Z,11.41
2024-01-01T06:46:31.226Z,11.40
2024-01-01T06:48:58.014Z,11.44
2024-01-01T06:51:24.742Z,11.42
2024-01-01T06:53:51.483Z,11.40
2024-01-01T06:56:18.259Z,11.40
2024-01-01T06:58:45.063Z,11.40
2024-01-01T07:01:11.880Z,11.41
2024-01-01T07:03:38.942Z,11.41
2024-01-01T07:06:05.714Z,11.42
2024-01-01T07:08:32.526Z,11.41
2024-01-01T07:10:59.333Z,11.40
2024-01-01T07:13:26.253Z,11.42
2024-01-01T07:15:52.951Z,11.38
2024-01-01T07:18:19.768Z,11.38
2024-01-01T07:20:46.540Z,11.40
2024-01-01T07:23:13.266Z,11.41
2024-01-01T07:25:40.196Z,11.41
2024-01-01T07:28:07.146Z,11.38
2024-01-01T07:30:34.069Z,11.40
2024-01-01T07:33:00.803Z,11.41
2024-01-01T07:35:27.578Z,11.38
2024-01-01T07:37:54.597Z,11.40
2024-01-01T07:40:21.346Z,11.41
2024-01-01T07:42:48.260Z,11.40
2024-01-01T07:45:14.966Z,11.41
2024-01-01T07:47:41.763Z,11.41
2024-01-01T07:50:08.610Z,11.40
2024-01-01T07:52:35.756Z,11.40
2024-01-01T07:55:02.770Z,11.40
2024-01-01T07:57:29.452Z,11.37
2024-01-01T07:59:56.141Z,11.38
2024-01-01T08:02:25.030Z,11.41
2024-01-01T08:04:53.440Z,11.40
2024-01-01T08:07:20.163Z,11.38
2024-01-01T08:09:46.895Z,11.41
2024-01-01T08:12:13.614Z,11.35
2024-01-01T08:14:40.296Z,11.40
2024-01-01T08:17:07.034Z,11.40
2024-01-01T08:19:33.812Z,11.35
2024-01-01T08:22:00.536Z,11.38
2024-01-01T08:24:27.268Z,11.40
2024-01-01T08:26:53.962Z,11.37
2024-01-01T08:29:20.945Z,11.34
2024-01-01T08:31:47.895Z,11.38
2024-01-01T08:34:14.790Z,11.37
2024-01-01T08:36:41.736Z,11.40
2024-01-01T08:39:08.476Z,11.37
2024-01-01T08:41:35.173Z,11.38
2024-01-01T08:44:01.994Z,11.41
2024-01-01T08:46:28.757Z,11.37
2024-01-01T08:48:55.521Z,11.40
2024-01-01T08:51:22.377Z,11.37
2024-01-01T08:53:49.343Z,11.41
2024-01-01T08:56:16.177Z,11.38
2024-01-01T08:58:42.956Z,11.38
2024-01-01T09:01:09.740Z,11.40
2024-01-01T09:03:36.830Z,11.37
2024-01-01T09:06:03.601Z,11.37
2024-01-01T09:08:31.073Z,11.38
2024-01-01T09:10:57.787Z,11.40
2024-01-01T09:13:24.517Z,11.37
2024-01-01T09:15:51.226Z,11.40
2024-01-01T09:18:18.292Z,11.35
2024-01-01T09:20:45.635Z,11.40
2024-01-01T09:23:12.442Z,11.38
2024-01-01T09:25:39.277Z,11.38
2024-01-01T09:28:06.268Z,11.35
2024-01-01T09:30:33.064Z,11.35
2024-01-01T09:33:00.048Z,11.38
2024-01-01T09:35:26.897Z,11.37
2024-01-01T09:37:54.064Z,11.38
2024-01-01T09:40:20.853Z,11.38
2024-01-01T09:42:47.581Z,11.37
2024-01-01T09:45:14.300Z,11.40
2024-01-01T09:47:41.220Z,11.38
2024-01-01T09:50:07.966Z,11.40
2024-01-01T09:52:34.671Z,11.40
2024-01-01T09:55:01.407Z,11.42
2024-01-01T09:57:28.105Z,11.37
2024-01-01T09:59:54.818Z,11.38
2024-01-01T10:02:21.609Z,11.40
2024-01-01T10:04:48.371Z,11.38
2024-01-01T10:07:15.280Z,11.38
2024-01-01T10:09:41.989Z,11.40
2024-01-01T10:12:08.724Z,11.41
2024-01-01T10:14:35.446Z,11.38
2024-01-01T10:17:02.201Z,11.40
2024-01-01T10:19:29.022Z,11.41
2024-01-01T10:21:55.751Z,11.37
2024-01-01T10:24:29.787Z,11.38
2024-01-01T10:26:59.685Z,11.40
2024-01-01T10:29:26.413Z,11.41
2024-01-01T10:31:53.363Z,11.40
2024-01-01T10:34:20.154Z,11.41
2024-01-01T10:36:46.911Z,11.42
2024-01-01T10:39:13.619Z,11.37
2024-01-01T10:41:40.537Z,11.38
2024-01-01T10:44:07.264Z,11.41
2024-01-01T10:46:33.995Z,11.37
2024-01-01T10:49:00.762Z,11.37
2024-01-01T10:51:27.517Z,11.38
2024-01-01T10:53:54.236Z,11.40
2024-01-01T10:56:21.972Z,11.38
2024-01-01T10:58:49.772Z,11.38
2024-01-01T11:01:16.581Z,11.38
2024-01-01T11:03:43.434Z,11.41
2024-01-01T11:06:10.217Z,11.40
2024-01-01T11:08:37.165Z,11.38
2024-01-01T11:11:03.899Z,11.38
2024-01-01T11:13:31.793Z,11.38
2024-01-01T11:15:58.751Z,11.41
2024-01-01T11:18:25.580Z,11.38
2024-01-01T11:20:53.993Z,11.38
2024-01-01T11:23:20.712Z,11.42
2024-01-01T11:25:47.451Z,11.41
2024-01-01T11:28:14.143Z,11.35
2024-01-01T11:30:40.881Z,11.40
2024-01-01T11:33:07.935Z,11.40
2024-01-01T11:35:34.972Z,11.37
2024-01-01T11:38:01.803Z,11.37
2024-01-01T11:40:28.527Z,11.40
2024-01-01T11:42:57.509Z,11.38
2024-01-01T11:45:24.404Z,11.35
2024-01-01T11:47:51.178Z,11.38
2024-01-01T11:50:18.192Z,11.38
2024-01-01T11:52:45.203Z,11.41
2024-01-01T11:55:12.009Z,11.37
2024-01-01T11:57:38.764Z,11.38
2024-01-01T12:00:05.498Z,11.38
2024-01-01T12:02:32.396Z,11.38
2024-01-01T12:04:59.403Z,11.38
2024-01-01T12:07:26.190Z,11.42
2024-01-01T12:09:52.949Z,11.40
2024-01-01T12:12:19.654Z,11.38
2024-01-01T12:14:46.380Z,11.41
2024-01-01T12:17:13.111Z,11.40
2024-01-01T12:19:39.991Z,11.44
2024-01-01T12:22:06.766Z,11.41
2024-01-01T12:24:33.482Z,11.44
2024-01-01T12:27:00.256Z,11.42
2024-01-01T12:29:27.000Z,11.52
2024-01-01T12:31:53.889Z,11.47
2024-01-01T12:34:20.936Z,11.44
2024-01-01T12:36:47.869Z,11.45
2024-01-01T12:39:14.813Z,11.45
2024-01-01T12:41:41.505Z,11.45
2024-01-01T12:44:08.234Z,11.45
2024-01-01T12:46:34.980Z,11.44
2024-01-01T12:49:01.713Z,11.44
2024-01-01T12:51:28.688Z,11.47
2024-01-01T12:53:55.465Z,11.47
2024-01-01T12:56:22.409Z,11.47
2024-01-01T12:58:49.246Z,11.50
2024-01-01T13:01:16.043Z,11.47
2024-01-01T13:03:42.791Z,11.45
2024-01-01T13:06:09.600Z,11.45
2024-01-01T13:08:36.336Z,11.45
2024-01-01T13:11:03.141Z,11.45
2024-01-01T13:13:30.097Z,11.45
2024-01-01T13:15:56.802Z,11.48
2024-01-01T13:18:23.578Z,11.48
2024-01-01T13:20:50.583Z,11.48
2024-01-01T13:23:17.411Z,11.47
2024-01-01T13:25:44.215Z,11.48
2024-01-01T13:28:10.964Z,11.51
2024-01-01T13:30:37.669Z,11.47
2024-01-01T13:33:04.495Z,11.48
2024-01-01T13:35:31.346Z,11.50
2024-01-01T13:37:59.777Z,11.45
2024-01-01T13:40:26.988Z,11.47
2024-01-01T13:42:53.713Z,11.47
2024-01-01T13:45:20.431Z,11.48
2024-01-01T13:47:47.201Z,11.45
2024-01-01T13:50:14.221Z,11.45
2024-01-01T13:52:41.065Z,11.45
2024-01-01T13:55:07.761Z,11.45
2024-01-01T13:57:34.448Z,11.45
2024-01-01T14:00:01.129Z,11.48
2024-01-01T14:02:27.856Z,11.44
2024-01-01T14:04:54.613Z,11.42
2024-01-01T14:07:21.563Z,11.45
2024-01-01T14:09:48.293Z,11.44
2024-01-01T14:12:15.024Z,11.42
2024-01-01T14:14:41.742Z,11.44
2024-01-01T14:17:08.501Z,11.45
2024-01-01T14:19:35.322Z,11.42
2024-01-01T14:22:02.085Z,11.41
2024-01-01T14:24:28.809Z,11.41
2024-01-01T14:26:55.524Z,11.44
2024-01-01T14:29:22.270Z,11.40
2024-01-01T14:31:49.080Z,11.44
2024-01-01T14:34:15.802Z,11.44
2024-01-01T14:36:42.486Z,11.41
2024-01-01T14:39:09.385Z,11.41
2024-01-01T14:41:36.163Z,11.44
2024-01-01T14:44:02.912Z,11.42
2024-01-01T14:46:29.688Z,11.41
2024-01-01T14:48:56.485Z,11.42
2024-01-01T14:51:23.323Z,11.41
2024-01-01T14:53:50.033Z,11.41
2024-01-01T14:56:18.922Z,11.40
2024-01-01T14:58:47.237Z,11.38
2024-01-01T15:01:14.041Z,11.38
2024-01-01T15:03:40.795Z,11.40
2024-01-01T15:06:07.549Z,11.38
2024-01-01T15:08:34.359Z,11.41
2024-01-01T15:11:01.249Z,11.42
2024-01-01T15:13:28.351Z,11.38
2024-01-01T15:15:55.083Z,11.37
2024-01-01T15:18:22.384Z,11.40
2024-01-01T15:20:49.161Z,11.37
2024-01-01T15:23:16.017Z,11.37
2024-01-01T15:25:42.798Z,11.35
2024-01-01T15:28:09.559Z,11.37
2024-01-01T15:30:36.584Z,11.34
2024-01-01T15:33:03.491Z,11.40
2024-01-01T15:35:30.375Z,11.35
2024-01-01T15:37:57.125Z,11.37
2024-01-01T15:40:23.866Z,11.37
2024-01-01T15:42:50.566Z,11.35
2024-01-01T15:45:17.286Z,11.38
2024-01-01T15:47:44.068Z,11.35
2024-01-01T15:50:11.154Z,11.35
2024-01-01T15:52:37.940Z,11.32
2024-01-01T15:55:04.655Z,11.35
2024-01-01T15:57:31.377Z,11.32
2024-01-01T15:59:58.091Z,11.31
2024-01-01T16:02:25.135Z,11.35
2024-01-01T16:04:51.959Z,11.35
2024-01-01T16:07:18.725Z,11.32
2024-01-01T16:09:45.478Z,11.32
2024-01-01T16:12:12.169Z,11.32
2024-01-01T16:14:38.898Z,11.31
2024-01-01T16:17:05.668Z,11.34
2024-01-01T16:19:34.890Z,11.30
2024-01-01T16:22:02.133Z,11.32
2024-01-01T16:24:28.914Z,11.34
2024-01-01T16:26:55.641Z,11.31
2024-01-01T16:29:22.413Z,11.32
2024-01-01T16:31:49.211Z,11.32
2024-01-01T16:34:16.148Z,11.32
2024-01-01T16:36:46.062Z,11.31
2024-01-01T16:39:14.235Z,11.32
2024-01-01T16:41:40.948Z,11.31
2024-01-01T16:44:07.686Z,11.30
2024-01-01T16:46:34.449Z,11.30
2024-01-01T16:49:01.463Z,11.31
2024-01-01T16:51:28.218Z,11.31
2024-01-01T16:53:54.907Z,11.31
2024-01-01T16:56:23.583Z,11.30
2024-01-01T16:58:51.616Z,11.30
2024-01-01T17:01:18.338Z,11.31
2024-01-01T17:03:45.026Z,11.32
2024-01-01T17:06:11.947Z,11.31
2024-01-01T17:08:38.661Z,11.32
2024-01-01T17:11:05.368Z,11.28
2024-01-01T17:13:32.138Z,11.28
2024-01-01T17:15:58.831Z,11.28
2024-01-01T17:18:25.567Z,11.30
2024-01-01T17:20:52.294Z,11.30
2024-01-01T17:23:19.236Z,11.30
2024-01-01T17:25:46.002Z,11.28
2024-01-01T17:28:12.964Z,11.30
2024-01-01T17:30:39.743Z,11.31
2024-01-01T17:33:06.810Z,11.28
2024-01-01T17:35:33.796Z,11.30
2024-01-01T17:38:00.594Z,11.30
2024-01-01T17:40:27.312Z,11.30
2024-01-01T17:42:54.005Z,11.27
2024-01-01T17:45:20.949Z,11.27
2024-01-01T17:47:47.684Z,11.26
2024-01-01T17:50:14.439Z,11.30
2024-01-01T17:52:41.185Z,11.30
2024-01-01T17:55:07.879Z,11.30
2024-01-01T17:57:34.593Z,11.27
2024-01-01T18:00:01.281Z,11.28
2024-01-01T18:02:28.271Z,11.28
2024-01-01T18:04:55.129Z,11.26
2024-01-01T18:07:21.919Z,11.28
2024-01-01T18:09:48.612Z,11.24
2024-01-01T18:12:15.314Z,11.27
2024-01-01T18:14:42.003Z,11.28
2024-01-01T18:17:08.765Z,11.26
2024-01-01T18:19:35.524Z,11.24
2024-01-01T18:22:02.389Z,11.27
2024-01-01T18:24:29.296Z,11.27
2024-01-01T18:26:55.962Z,11.24
2024-01-01T18:29:22.656Z,11.24
2024-01-01T18:31:49.414Z,11.24
2024-01-01T18:34:16.137Z,11.24
2024-01-01T18:36:42.864Z,11.26
2024-01-01T18:39:09.549Z,11.26
2024-01-01T18:41:42.249Z,11.26
2024-01-01T18:44:11.950Z,11.23
2024-01-01T18:46:38.960Z,11.21
2024-01-01T18:49:06.126Z,11.23
2024-01-01T18:51:33.514Z,11.23
2024-01-01T18:54:00.328Z,11.23
2024-01-01T18:56:27.336Z,11.20
2024-01-01T18:58:54.125Z,11.24
2024-01-01T19:01:21.180Z,11.21
2024-01-01T19:03:47.975Z,11.23
2024-01-01T19:06:14.973Z,11.21
2024-01-01T19:08:41.649Z,11.23
2024-01-01T19:11:08.630Z,11.23
2024-01-01T19:13:35.317Z,11.20
2024-01-01T19:16:02.038Z,11.21
2024-01-01T19:18:28.815Z,11.21
2024-01-01T19:20:55.646Z,11.20
2024-01-01T19:23:22.384Z,11.20
2024-01-01T19:25:49.122Z,11.20
2024-01-01T19:28:15.856Z,11.20
2024-01-01T19:30:42.590Z,11.20
2024-01-01T19:33:11.286Z,11.20
2024-01-01T19:35:38.319Z,11.20
2024-01-01T19:38:05.329Z,11.18
2024-01-01T19:40:32.067Z,11.20
2024-01-01T19:42:59.031Z,11.18
2024-01-01T19:45:26.596Z,11.18
2024-01-01T19:47:53.823Z,11.21
2024-01-01T19:50:20.577Z,11.18
2024-01-01T19:52:47.585Z,11.20
2024-01-01T19:55:14.313Z,11.18
2024-01-01T19:57:41.260Z,11.17
2024-01-01T20:00:07.938Z,11.17
2024-01-01T20:02:34.872Z,11.18
2024-01-01T20:05:01.751Z,11.20
2024-01-01T20:07:28.776Z,11.16
2024-01-01T20:09:55.475Z,11.18
2024-01-01T20:12:22.417Z,11.20
2024-01-01T20:14:49.098Z,11.18
2024-01-01T20:17:15.839Z,11.18
2024-01-01T20:19:42.554Z,11.17
2024-01-01T20:22:09.263Z,11.18
2024-01-01T20:24:35.987Z,11.16
2024-01-01T20:27:02.703Z,11.16
2024-01-01T20:29:29.448Z,11.17
2024-01-01T20:31:56.296Z,11.13
2024-01-01T20:34:23.326Z,11.17
2024-01-01T20:36:50.135Z,11.16
2024-01-01T20:39:16.848Z,11.16
2024-01-01T20:41:43.563Z,11.18
2024-01-01T20:44:10.310Z,11.16
2024-01-01T20:46:37.021Z,11.18
2024-01-01T20:49:04.020Z,11.20
2024-01-01T20:51:30.756Z,11.14
2024-01-01T20:53:57.716Z,11.13
2024-01-01T20:56:24.465Z,11.14
2024-01-01T20:58:51.588Z,11.16
2024-01-01T21:01:18.387Z,11.16
2024-01-01T21:03:45.428Z,11.14
2024-01-01T21:06:12.345Z,11.16
2024-01-01T21:08:39.437Z,11.16
2024-01-01T21:11:06.251Z,11.14
2024-01-01T21:13:33.239Z,11.16
2024-01-01T21:16:02.176Z,11.14
2024-01-01T21:18:29.604Z,11.16
2024-01-01T21:20:56.550Z,11.16
2024-01-01T21:23:23.332Z,11.14
2024-01-01T21:25:50.107Z,11.18
2024-01-01T21:28:16.873Z,11.18
2024-01-01T21:30:43.704Z,11.14
2024-01-01T21:33:10.604Z,11.13
2024-01-01T21:35:37.573Z,11.16
2024-01-01T21:38:04.373Z,11.13
2024-01-01T21:40:31.124Z,11.16
2024-01-01T21:42:57.930Z,11.14
2024-01-01T21:45:24.666Z,11.14
2024-01-01T21:47:51.549Z,11.14
2024-01-01T21:50:18.351Z,11.13
2024-01-01T21:52:45.105Z,11.17
2024-01-01T21:55:11.814Z,11.17
2024-01-01T21:57:38.546Z,11.16
2024-01-01T22:00:05.272Z,11.16
2024-01-01T22:02:32.058Z,11.16
2024-01-01T22:04:58.953Z,11.14
2024-01-01T22:07:25.729Z,11.14
2024-01-01T22:09:52.463Z,11.16
2024-01-01T22:12:19.195Z,11.16
2024-01-01T22:14:45.899Z,11.14
2024-01-01T22:17:12.633Z,11.13
2024-01-01T22:19:39.328Z,11.13
2024-01-01T22:22:06.030Z,11.17
2024-01-01T22:24:32.738Z,11.14
2024-01-01T22:26:59.410Z,11.11
2024-01-01T22:29:26.208Z,11.13
2024-01-01T22:31:53.044Z,11.11
2024-01-01T22:34:19.736Z,11.13
2024-01-01T22:36:46.475Z,11.10
2024-01-01T22:39:13.202Z,11.13
2024-01-01T22:41:39.917Z,11.16
2024-01-01T22:44:06.901Z,11.14
2024-01-01T22:46:33.610Z,11.14
2024-01-01T22:49:00.405Z,11.14
2024-01-01T22:51:27.152Z,11.14
2024-01-01T22:53:53.853Z,11.13
2024-01-01T22:56:20.688Z,11.13
2024-01-01T22:58:47.446Z,11.13
2024-01-01T23:01:14.223Z,11.14
2024-01-01T23:03:40.947Z,11.11
2024-01-01T23:06:07.735Z,11.13
2024-01-01T23:08:34.458Z,11.11
2024-01-01T23:11:01.252Z,11.10
2024-01-01T23:13:27.994Z,11.11
2024-01-01T23:15:54.713Z,11.13
2024-01-01T23:18:21.466Z,11.10
2024-01-01T23:20:48.484Z,11.10
2024-01-01T23:23:15.199Z,11.10
2024-01-01T23:25:50.054Z,11.11
2024-01-01T23:28:19.512Z,11.11
2024-01-01T23:30:46.227Z,11.09
2024-01-01T23:33:13.274Z,11.11
2024-01-01T23:35:40.347Z,11.10
2024-01-01T23:38:07.162Z,11.14
2024-01-01T23:40:33.921Z,11.11
2024-01-01T23:43:00.620Z,11.11
2024-01-01T23:45:27.286Z,11.10
2024-01-01T23:47:54.028Z,11.11
2024-01-01T23:50:20.856Z,11.11
2024-01-01T23:52:47.637Z,11.11
2024-01-01T23:55:14.334Z,11.09
2024-01-01T23:57:41.057Z,11.11
